sensor_id;sensor_type;location;lat;lon;timestamp;pressure;altitude;pressure_sealevel;temperature;humidity
56721;BME280;53183;47.412;18.884;2023-04-26T00:01:36;98565.16;;;7.46;99.85
56721;BME280;53183;47.412;18.884;2023-04-26T00:04:04;98571.75;;;7.53;99.03
56721;BME280;53183;47.412;18.884;2023-04-26T00:06:32;98562.97;;;7.54;98.86
56721;BME280;53183;47.412;18.884;2023-04-26T00:08:59;98574.38;;;7.53;98.48
56721;BME280;53183;47.412;18.884;2023-04-26T00:11:26;98579.47;;;7.56;98.80
56721;BME280;53183;47.412;18.884;2023-04-26T00:13:54;98580.25;;;7.58;98.32
56721;BME280;53183;47.412;18.884;2023-04-26T00:16:21;98582.44;;;7.50;98.66
56721;BME280;53183;47.412;18.884;2023-04-26T00:18:48;98580.06;;;7.45;98.96
56721;BME280;53183;47.412;18.884;2023-04-26T00:21:16;98573.72;;;7.49;98.81
56721;BME280;53183;47.412;18.884;2023-04-26T00:23:43;98588.91;;;7.44;99.09
56721;BME280;53183;47.412;18.884;2023-04-26T00:26:10;98582.19;;;7.39;99.31
56721;BME280;53183;47.412;18.884;2023-04-26T00:28:37;98590.94;;;7.39;99.37
56721;BME280;53183;47.412;18.884;2023-04-26T00:31:05;98596.34;;;7.36;99.44
56721;BME280;53183;47.412;18.884;2023-04-26T00:33:33;98592.53;;;7.42;99.03
56721;BME280;53183;47.412;18.884;2023-04-26T00:36:00;98592.31;;;7.31;99.65
56721;BME280;53183;47.412;18.884;2023-04-26T00:38:27;98591.44;;;7.30;99.75
56721;BME280;53183;47.412;18.884;2023-04-26T00:40:55;98602.28;;;7.40;99.21
56721;BME280;53183;47.412;18.884;2023-04-26T00:43:22;98604.50;;;7.32;99.28
56721;BME280;53183;47.412;18.884;2023-04-26T00:45:50;98602.44;;;7.37;99.09
56721;BME280;53183;47.412;18.884;2023-04-26T00:48:19;98608.91;;;7.31;99.11
56721;BME280;53183;47.412;18.884;2023-04-26T00:50:46;98605.59;;;7.27;99.24
56721;BME280;53183;47.412;18.884;2023-04-26T00:53:15;98606.25;;;7.15;99.77
56721;BME280;53183;47.412;18.884;2023-04-26T00:55:43;98604.47;;;7.16;99.63
56721;BME280;53183;47.412;18.884;2023-04-26T00:58:11;98603.81;;;7.12;99.58
56721;BME280;53183;47.412;18.884;2023-04-26T01:00:38;98604.28;;;7.03;99.77
56721;BME280;53183;47.412;18.884;2023-04-26T01:03:05;98606.50;;;6.95;100.00
56721;BME280;53183;47.412;18.884;2023-04-26T01:05:34;98609.97;;;6.95;100.00
56721;BME280;53183;47.412;18.884;2023-04-26T01:08:02;98610.03;;;6.94;100.00
56721;BME280;53183;47.412;18.884;2023-04-26T01:10:31;98617.00;;;6.95;100.00
56721;BME280;53183;47.412;18.884;2023-04-26T01:13:01;98606.13;;;6.85;100.00
56721;BME280;53183;47.412;18.884;2023-04-26T01:15:29;98623.81;;;6.81;100.00
56721;BME280;53183;47.412;18.884;2023-04-26T01:17:59;98624.81;;;6.79;100.00
56721;BME280;53183;47.412;18.884;2023-04-26T01:20:26;98616.31;;;6.74;100.00
56721;BME280;53183;47.412;18.884;2023-04-26T01:22:53;98620.50;;;6.78;100.00
56721;BME280;53183;47.412;18.884;2023-04-26T01:25:21;98624.62;;;6.66;100.00
56721;BME280;53183;47.412;18.884;2023-04-26T01:27:48;98626.41;;;6.66;100.00
56721;BME280;53183;47.412;18.884;2023-04-26T01:30:15;98624.72;;;6.65;100.00
56721;BME280;53183;47.412;18.884;2023-04-26T01:32:43;98625.62;;;6.64;100.00
56721;BME280;53183;47.412;18.884;2023-04-26T01:35:14;98629.41;;;6.58;100.00
56721;BME280;53183;47.412;18.884;2023-04-26T01:37:41;98632.81;;;6.60;100.00
56721;BME280;53183;47.412;18.884;2023-04-26T01:40:09;98638.59;;;6.67;100.00
56721;BME280;53183;47.412;18.884;2023-04-26T01:42:37;98639.75;;;6.61;100.00
56721;BME280;53183;47.412;18.884;2023-04-26T01:45:04;98647.47;;;6.64;100.00
56721;BME280;53183;47.412;18.884;2023-04-26T01:47:47;98651.31;;;6.74;100.00
56721;BME280;53183;47.412;18.884;2023-04-26T01:50:15;98654.88;;;6.73;100.00
56721;BME280;53183;47.412;18.884;2023-04-26T01:52:42;98648.16;;;6.68;100.00
56721;BME280;53183;47.412;18.884;2023-04-26T01:55:10;98662.06;;;6.70;100.00
56721;BME280;53183;47.412;18.884;2023-04-26T01:57:38;98652.66;;;6.66;100.00
56721;BME280;53183;47.412;18.884;2023-04-26T02:00:06;98649.25;;;6.64;100.00
56721;BME280;53183;47.412;18.884;2023-04-26T02:02:38;98654.66;;;6.61;100.00
56721;BME280;53183;47.412;18.884;2023-04-26T02:05:09;98664.41;;;6.58;100.00
56721;BME280;53183;47.412;18.884;2023-04-26T02:07:37;98654.41;;;6.48;100.00
56721;BME280;53183;47.412;18.884;2023-04-26T02:10:05;98656.28;;;6.46;100.00
56721;BME280;53183;47.412;18.884;2023-04-26T02:12:32;98662.69;;;6.40;100.00
56721;BME280;53183;47.412;18.884;2023-04-26T02:14:59;98657.97;;;6.47;100.00
56721;BME280;53183;47.412;18.884;2023-04-26T02:17:27;98656.81;;;6.52;100.00
56721;BME280;53183;47.412;18.884;2023-04-26T02:19:55;98661.78;;;6.58;100.00
56721;BME280;53183;47.412;18.884;2023-04-26T02:22:23;98665.59;;;6.51;100.00
56721;BME280;53183;47.412;18.884;2023-04-26T02:24:51;98666.34;;;6.55;100.00
56721;BME280;53183;47.412;18.884;2023-04-26T02:27:18;98668.16;;;6.53;100.00
56721;BME280;53183;47.412;18.884;2023-04-26T02:29:46;98669.56;;;6.60;100.00
56721;BME280;53183;47.412;18.884;2023-04-26T02:32:13;98669.00;;;6.53;100.00
56721;BME280;53183;47.412;18.884;2023-04-26T02:34:41;98675.41;;;6.48;100.00
56721;BME280;53183;47.412;18.884;2023-04-26T02:37:09;98674.13;;;6.39;100.00
56721;BME280;53183;47.412;18.884;2023-04-26T02:39:37;98669.78;;;6.38;100.00
56721;BME280;53183;47.412;18.884;2023-04-26T02:42:08;98672.19;;;6.43;100.00
56721;BME280;53183;47.412;18.884;2023-04-26T02:44:36;98666.94;;;6.43;100.00
56721;BME280;53183;47.412;18.884;2023-04-26T02:47:06;98670.00;;;6.33;100.00
56721;BME280;53183;47.412;18.884;2023-04-26T02:49:33;98673.88;;;6.44;100.00
56721;BME280;53183;47.412;18.884;2023-04-26T02:52:01;98674.47;;;6.31;100.00
56721;BME280;53183;47.412;18.884;2023-04-26T02:54:29;98681.34;;;6.34;100.00
56721;BME280;53183;47.412;18.884;2023-04-26T02:56:56;98679.66;;;6.33;100.00
56721;BME280;53183;47.412;18.884;2023-04-26T02:59:26;98685.84;;;6.32;100.00
56721;BME280;53183;47.412;18.884;2023-04-26T03:01:54;98691.25;;;6.29;100.00
56721;BME280;53183;47.412;18.884;2023-04-26T03:04:22;98700.88;;;6.28;100.00
56721;BME280;53183;47.412;18.884;2023-04-26T03:06:50;98698.78;;;6.18;100.00
56721;BME280;53183;47.412;18.884;2023-04-26T03:09:17;98707.50;;;6.18;100.00
56721;BME280;53183;47.412;18.884;2023-04-26T03:11:44;98708.38;;;6.19;100.00
56721;BME280;53183;47.412;18.884;2023-04-26T03:14:13;98711.34;;;6.11;100.00
56721;BME280;53183;47.412;18.884;2023-04-26T03:16:41;98712.41;;;6.07;100.00
56721;BME280;53183;47.412;18.884;2023-04-26T03:19:09;98716.25;;;6.00;100.00
56721;BME280;53183;47.412;18.884;2023-04-26T03:21:37;98718.31;;;5.93;100.00
56721;BME280;53183;47.412;18.884;2023-04-26T03:24:05;98712.16;;;5.94;100.00
56721;BME280;53183;47.412;18.884;2023-04-26T03:26:32;98729.91;;;5.87;100.00
56721;BME280;53183;47.412;18.884;2023-04-26T03:29:00;98734.69;;;5.79;100.00
56721;BME280;53183;47.412;18.884;2023-04-26T03:31:28;98729.34;;;5.81;100.00
56721;BME280;53183;47.412;18.884;2023-04-26T03:33:55;98738.13;;;5.80;100.00
56721;BME280;53183;47.412;18.884;2023-04-26T03:36:23;98737.22;;;5.81;100.00
56721;BME280;53183;47.412;18.884;2023-04-26T03:38:50;98737.72;;;5.70;100.00
56721;BME280;53183;47.412;18.884;2023-04-26T03:41:18;98741.22;;;5.69;100.00
56721;BME280;53183;47.412;18.884;2023-04-26T03:43:45;98735.72;;;5.75;100.00
56721;BME280;53183;47.412;18.884;2023-04-26T03:46:13;98739.91;;;5.79;100.00
56721;BME280;53183;47.412;18.884;2023-04-26T03:48:40;98744.22;;;5.80;100.00
56721;BME280;53183;47.412;18.884;2023-04-26T03:51:08;98744.03;;;5.66;100.00
56721;BME280;53183;47.412;18.884;2023-04-26T03:53:35;98742.16;;;5.68;100.00
56721;BME280;53183;47.412;18.884;2023-04-26T03:56:02;98756.91;;;5.71;100.00
56721;BME280;53183;47.412;18.884;2023-04-26T03:58:30;98749.63;;;5.77;100.00
56721;BME280;53183;47.412;18.884;2023-04-26T04:00:57;98750.25;;;5.82;100.00
56721;BME280;53183;47.412;18.884;2023-04-26T04:03:25;98744.16;;;5.82;100.00
56721;BME280;53183;47.412;18.884;2023-04-26T04:05:52;98756.22;;;5.86;100.00
56721;BME280;53183;47.412;18.884;2023-04-26T04:08:20;98760.75;;;5.82;100.00
56721;BME280;53183;47.412;18.884;2023-04-26T04:10:47;98765.69;;;5.88;100.00
56721;BME280;53183;47.412;18.884;2023-04-26T04:13:14;98766.63;;;5.87;100.00
56721;BME280;53183;47.412;18.884;2023-04-26T04:15:42;98774.34;;;5.91;100.00
56721;BME280;53183;47.412;18.884;2023-04-26T04:18:09;98776.97;;;5.91;100.00
56721;BME280;53183;47.412;18.884;2023-04-26T04:20:37;98778.22;;;6.02;100.00
56721;BME280;53183;47.412;18.884;2023-04-26T04:23:04;98792.38;;;5.98;100.00
56721;BME280;53183;47.412;18.884;2023-04-26T04:25:34;98795.94;;;5.97;100.00
56721;BME280;53183;47.412;18.884;2023-04-26T04:28:03;98797.34;;;6.04;100.00
56721;BME280;53183;47.412;18.884;2023-04-26T04:30:30;98799.47;;;6.51;97.90
56721;BME280;53183;47.412;18.884;2023-04-26T04:32:59;98801.81;;;6.57;96.17
56721;BME280;53183;47.412;18.884;2023-04-26T04:35:29;98796.00;;;6.51;96.35
56721;BME280;53183;47.412;18.884;2023-04-26T04:38:00;98803.69;;;6.37;96.88
56721;BME280;53183;47.412;18.884;2023-04-26T04:40:29;98803.47;;;6.41;96.85
56721;BME280;53183;47.412;18.884;2023-04-26T04:42:57;98805.75;;;6.49;96.34
56721;BME280;53183;47.412;18.884;2023-04-26T04:45:27;98821.41;;;6.50;95.74
56721;BME280;53183;47.412;18.884;2023-04-26T04:47:55;98815.97;;;6.55;95.38
56721;BME280;53183;47.412;18.884;2023-04-26T04:50:22;98828.53;;;6.48;95.30
56721;BME280;53183;47.412;18.884;2023-04-26T04:52:50;98826.59;;;6.52;94.84
56721;BME280;53183;47.412;18.884;2023-04-26T04:55:17;98832.72;;;6.70;95.44
56721;BME280;53183;47.412;18.884;2023-04-26T04:57:45;98831.44;;;6.78;94.49
56721;BME280;53183;47.412;18.884;2023-04-26T05:00:12;98835.00;;;6.95;93.23
56721;BME280;53183;47.412;18.884;2023-04-26T05:02:40;98843.19;;;6.89;92.00
56721;BME280;53183;47.412;18.884;2023-04-26T05:05:09;98842.75;;;6.98;91.56
56721;BME280;53183;47.412;18.884;2023-04-26T05:07:37;98837.34;;;7.01;91.51
56721;BME280;53183;47.412;18.884;2023-04-26T05:10:05;98847.38;;;7.10;91.71
56721;BME280;53183;47.412;18.884;2023-04-26T05:12:32;98843.19;;;7.58;87.82
56721;BME280;53183;47.412;18.884;2023-04-26T05:15:03;98851.91;;;7.59;87.35
56721;BME280;53183;47.412;18.884;2023-04-26T05:17:32;98856.13;;;7.79;85.34
56721;BME280;53183;47.412;18.884;2023-04-26T05:20:01;98858.09;;;7.75;85.32
56721;BME280;53183;47.412;18.884;2023-04-26T05:22:34;98855.28;;;7.78;84.16
56721;BME280;53183;47.412;18.884;2023-04-26T05:25:03;98854.78;;;8.20;82.37
56721;BME280;53183;47.412;18.884;2023-04-26T05:27:31;98851.34;;;8.52;79.65
56721;BME280;53183;47.412;18.884;2023-04-26T05:30:03;98851.59;;;8.79;79.40
56721;BME280;53183;47.412;18.884;2023-04-26T05:32:31;98860.47;;;9.38;76.55
56721;BME280;53183;47.412;18.884;2023-04-26T05:34:59;98864.03;;;9.81;74.00
56721;BME280;53183;47.412;18.884;2023-04-26T05:37:29;98849.78;;;9.98;73.94
56721;BME280;53183;47.412;18.884;2023-04-26T05:39:56;98851.41;;;10.71;68.36
56721;BME280;53183;47.412;18.884;2023-04-26T05:42:23;98858.84;;;11.06;67.93
56721;BME280;53183;47.412;18.884;2023-04-26T05:44:56;98861.75;;;11.28;66.62
56721;BME280;53183;47.412;18.884;2023-04-26T05:47:23;98851.47;;;11.23;63.51
56721;BME280;53183;47.412;18.884;2023-04-26T05:49:52;98856.06;;;10.67;67.07
56721;BME280;53183;47.412;18.884;2023-04-26T05:52:19;98851.03;;;10.63;67.13
56721;BME280;53183;47.412;18.884;2023-04-26T05:54:47;98857.50;;;10.44;67.81
56721;BME280;53183;47.412;18.884;2023-04-26T05:57:15;98855.25;;;10.24;66.77
56721;BME280;53183;47.412;18.884;2023-04-26T05:59:43;98867.88;;;10.19;65.96
56721;BME280;53183;47.412;18.884;2023-04-26T06:02:10;98872.41;;;10.45;65.19
56721;BME280;53183;47.412;18.884;2023-04-26T06:04:38;98867.53;;;10.80;62.13
56721;BME280;53183;47.412;18.884;2023-04-26T06:07:06;98860.03;;;11.14;61.96
56721;BME280;53183;47.412;18.884;2023-04-26T06:09:33;98860.34;;;11.62;59.99
56721;BME280;53183;47.412;18.884;2023-04-26T06:12:03;98867.47;;;11.35;56.62
56721;BME280;53183;47.412;18.884;2023-04-26T06:14:31;98862.72;;;11.27;54.04
56721;BME280;53183;47.412;18.884;2023-04-26T06:16:59;98873.75;;;11.07;54.31
56721;BME280;53183;47.412;18.884;2023-04-26T06:19:27;98871.84;;;10.82;57.08
56721;BME280;53183;47.412;18.884;2023-04-26T06:21:55;98867.13;;;10.87;53.52
56721;BME280;53183;47.412;18.884;2023-04-26T06:24:23;98861.06;;;11.12;54.11
56721;BME280;53183;47.412;18.884;2023-04-26T06:26:52;98860.47;;;11.21;53.47
56721;BME280;53183;47.412;18.884;2023-04-26T06:29:20;98871.00;;;11.48;53.81
56721;BME280;53183;47.412;18.884;2023-04-26T06:31:47;98869.19;;;10.96;53.14
56721;BME280;53183;47.412;18.884;2023-04-26T06:34:16;98868.47;;;11.07;53.97
56721;BME280;53183;47.412;18.884;2023-04-26T06:36:44;98870.31;;;11.19;53.21
56721;BME280;53183;47.412;18.884;2023-04-26T06:39:12;98864.91;;;11.20;54.40
56721;BME280;53183;47.412;18.884;2023-04-26T06:41:42;98865.84;;;11.72;53.96
56721;BME280;53183;47.412;18.884;2023-04-26T06:44:10;98868.72;;;11.69;52.31
56721;BME280;53183;47.412;18.884;2023-04-26T06:46:40;98873.75;;;11.46;52.28
56721;BME280;53183;47.412;18.884;2023-04-26T06:49:08;98890.38;;;11.48;52.54
56721;BME280;53183;47.412;18.884;2023-04-26T06:51:37;98887.16;;;11.31;52.12
56721;BME280;53183;47.412;18.884;2023-04-26T06:54:04;98881.78;;;11.32;51.23
56721;BME280;53183;47.412;18.884;2023-04-26T06:56:32;98866.44;;;11.50;51.21
56721;BME280;53183;47.412;18.884;2023-04-26T06:59:01;98878.88;;;11.62;51.69
56721;BME280;53183;47.412;18.884;2023-04-26T07:01:29;98881.56;;;11.88;50.36
56721;BME280;53183;47.412;18.884;2023-04-26T07:04:01;98879.69;;;12.52;48.82
56721;BME280;53183;47.412;18.884;2023-04-26T07:06:30;98887.22;;;12.46;48.45
56721;BME280;53183;47.412;18.884;2023-04-26T07:08:58;98880.47;;;12.41;47.89
56721;BME280;53183;47.412;18.884;2023-04-26T07:11:27;98884.34;;;12.49;48.27
56721;BME280;53183;47.412;18.884;2023-04-26T07:13:55;98887.97;;;13.08;48.22
56721;BME280;53183;47.412;18.884;2023-04-26T07:16:23;98888.13;;;13.77;44.80
56721;BME280;53183;47.412;18.884;2023-04-26T07:18:50;98882.75;;;14.24;43.46
56721;BME280;53183;47.412;18.884;2023-04-26T07:21:19;98889.31;;;15.08;43.08
56721;BME280;53183;47.412;18.884;2023-04-26T07:23:46;98904.09;;;15.33;41.29
56721;BME280;53183;47.412;18.884;2023-04-26T07:26:13;98913.97;;;14.56;42.38
56721;BME280;53183;47.412;18.884;2023-04-26T07:28:41;98903.16;;;14.80;41.95
56721;BME280;53183;47.412;18.884;2023-04-26T07:31:08;98905.78;;;15.02;40.89
56721;BME280;53183;47.412;18.884;2023-04-26T07:33:36;98896.16;;;15.22;40.35
56721;BME280;53183;47.412;18.884;2023-04-26T07:36:04;98909.50;;;15.43;40.34
56721;BME280;53183;47.412;18.884;2023-04-26T07:38:32;98923.84;;;14.87;39.63
56721;BME280;53183;47.412;18.884;2023-04-26T07:40:59;98924.09;;;14.50;40.15
56721;BME280;53183;47.412;18.884;2023-04-26T07:43:29;98922.53;;;14.70;39.81
56721;BME280;53183;47.412;18.884;2023-04-26T07:45:59;98923.00;;;14.75;39.81
56721;BME280;53183;47.412;18.884;2023-04-26T07:48:28;98930.03;;;14.54;38.83
56721;BME280;53183;47.412;18.884;2023-04-26T07:50:55;98924.81;;;14.75;39.55
56721;BME280;53183;47.412;18.884;2023-04-26T07:53:22;98933.00;;;15.06;38.71
56721;BME280;53183;47.412;18.884;2023-04-26T07:55:50;98929.38;;;14.28;38.46
56721;BME280;53183;47.412;18.884;2023-04-26T07:58:17;98936.41;;;14.29;38.63
56721;BME280;53183;47.412;18.884;2023-04-26T08:00:45;98942.09;;;14.36;39.25
56721;BME280;53183;47.412;18.884;2023-04-26T08:03:15;98944.59;;;14.37;40.28
56721;BME280;53183;47.412;18.884;2023-04-26T08:05:44;98939.69;;;14.66;39.61
56721;BME280;53183;47.412;18.884;2023-04-26T08:08:13;98958.16;;;14.45;39.82
56721;BME280;53183;47.412;18.884;2023-04-26T08:10:42;98933.50;;;14.43;40.08
56721;BME280;53183;47.412;18.884;2023-04-26T08:13:09;98931.09;;;14.74;38.84
56721;BME280;53183;47.412;18.884;2023-04-26T08:15:37;98945.38;;;14.50;38.40
56721;BME280;53183;47.412;18.884;2023-04-26T08:18:04;98949.09;;;14.37;39.86
56721;BME280;53183;47.412;18.884;2023-04-26T08:20:31;98960.97;;;14.66;38.35
56721;BME280;53183;47.412;18.884;2023-04-26T08:22:59;98946.53;;;14.13;38.95
56721;BME280;53183;47.412;18.884;2023-04-26T08:25:26;98951.50;;;14.28;41.00
56721;BME280;53183;47.412;18.884;2023-04-26T08:27:54;98940.97;;;14.16;39.83
56721;BME280;53183;47.412;18.884;2023-04-26T08:30:21;98946.81;;;13.50;40.35
56721;BME280;53183;47.412;18.884;2023-04-26T08:32:49;98958.06;;;13.89;40.30
56721;BME280;53183;47.412;18.884;2023-04-26T08:35:16;98948.72;;;14.30;39.93
56721;BME280;53183;47.412;18.884;2023-04-26T08:37:44;98959.41;;;13.59;39.97
56721;BME280;53183;47.412;18.884;2023-04-26T08:40:11;98964.50;;;13.38;40.71
56721;BME280;53183;47.412;18.884;2023-04-26T08:42:40;98983.47;;;13.69;40.29
56721;BME280;53183;47.412;18.884;2023-04-26T08:45:08;98956.00;;;13.46;39.21
56721;BME280;53183;47.412;18.884;2023-04-26T08:47:43;98973.88;;;13.91;38.10
56721;BME280;53183;47.412;18.884;2023-04-26T08:50:14;98970.44;;;14.13;39.04
56721;BME280;53183;47.412;18.884;2023-04-26T08:52:42;98982.84;;;14.70;38.45
56721;BME280;53183;47.412;18.884;2023-04-26T08:55:10;98976.84;;;14.10;36.95
56721;BME280;53183;47.412;18.884;2023-04-26T08:57:45;98974.31;;;13.73;39.01
56721;BME280;53183;47.412;18.884;2023-04-26T09:00:13;98987.59;;;14.20;38.54
56721;BME280;53183;47.412;18.884;2023-04-26T09:02:47;98985.47;;;13.90;38.20
56721;BME280;53183;47.412;18.884;2023-04-26T09:05:15;98984.31;;;13.46;37.49
56721;BME280;53183;47.412;18.884;2023-04-26T09:07:45;98990.88;;;13.53;38.37
56721;BME280;53183;47.412;18.884;2023-04-26T09:10:17;98979.03;;;13.81;37.82
56721;BME280;53183;47.412;18.884;2023-04-26T09:12:51;98987.63;;;14.31;37.62
56721;BME280;53183;47.412;18.884;2023-04-26T09:15:19;98976.84;;;14.21;37.88
56721;BME280;53183;47.412;18.884;2023-04-26T09:17:48;98982.22;;;13.86;38.56
56721;BME280;53183;47.412;18.884;2023-04-26T09:22:53;98981.44;;;13.25;40.51
56721;BME280;53183;47.412;18.884;2023-04-26T09:25:28;98973.25;;;13.52;40.13
56721;BME280;53183;47.412;18.884;2023-04-26T09:27:57;98975.97;;;13.63;38.42
56721;BME280;53183;47.412;18.884;2023-04-26T09:30:26;98980.09;;;13.78;40.50
56721;BME280;53183;47.412;18.884;2023-04-26T09:32:59;98981.97;;;13.89;38.12
56721;BME280;53183;47.412;18.884;2023-04-26T09:50:57;98979.13;;;14.03;38.61
56721;BME280;53183;47.412;18.884;2023-04-26T09:53:29;98980.50;;;14.43;37.16
56721;BME280;53183;47.412;18.884;2023-04-26T09:58:36;98980.50;;;14.31;37.33
56721;BME280;53183;47.412;18.884;2023-04-26T10:01:06;98976.78;;;14.90;37.65
56721;BME280;53183;47.412;18.884;2023-04-26T10:03:35;98976.06;;;15.11;35.37
56721;BME280;53183;47.412;18.884;2023-04-26T10:06:03;98994.66;;;14.43;36.45
56721;BME280;53183;47.412;18.884;2023-04-26T10:08:31;98972.66;;;13.83;36.89
56721;BME280;53183;47.412;18.884;2023-04-26T10:10:59;98984.19;;;13.23;38.13
56721;BME280;53183;47.412;18.884;2023-04-26T10:13:33;98985.69;;;13.14;38.25
56721;BME280;53183;47.412;18.884;2023-04-26T10:16:02;98980.66;;;13.95;37.70
56721;BME280;53183;47.412;18.884;2023-04-26T10:18:30;98974.63;;;14.04;37.15
56721;BME280;53183;47.412;18.884;2023-04-26T10:21:06;98978.97;;;13.94;36.83
56721;BME280;53183;47.412;18.884;2023-04-26T10:23:37;98979.06;;;13.57;36.90
56721;BME280;53183;47.412;18.884;2023-04-26T10:26:04;98979.53;;;13.27;37.68
56721;BME280;53183;47.412;18.884;2023-04-26T10:31:10;98990.75;;;12.81;37.78
56721;BME280;53183;47.412;18.884;2023-04-26T10:33:38;98982.84;;;13.42;37.09
56721;BME280;53183;47.412;18.884;2023-04-26T10:36:12;98963.03;;;13.94;35.41
56721;BME280;53183;47.412;18.884;2023-04-26T10:41:30;99013.84;;;13.89;36.87
56721;BME280;53183;47.412;18.884;2023-04-26T10:44:00;98989.88;;;13.78;38.08
56721;BME280;53183;47.412;18.884;2023-04-26T10:46:50;98990.56;;;13.93;36.66
56721;BME280;53183;47.412;18.884;2023-04-26T10:49:19;98982.53;;;13.81;36.30
56721;BME280;53183;47.412;18.884;2023-04-26T10:52:11;98987.44;;;13.99;36.63
56721;BME280;53183;47.412;18.884;2023-04-26T10:54:59;98976.81;;;13.64;36.04
56721;BME280;53183;47.412;18.884;2023-04-26T10:57:46;99000.19;;;13.58;37.26
56721;BME280;53183;47.412;18.884;2023-04-26T11:05:56;98987.84;;;13.81;36.75
56721;BME280;53183;47.412;18.884;2023-04-26T11:08:32;98975.97;;;13.63;33.62
56721;BME280;53183;47.412;18.884;2023-04-26T11:13:38;98976.38;;;14.27;34.72
56721;BME280;53183;47.412;18.884;2023-04-26T11:16:14;98975.91;;;14.22;34.94
56721;BME280;53183;47.412;18.884;2023-04-26T11:18:43;98981.78;;;14.61;34.96
56721;BME280;53183;47.412;18.884;2023-04-26T11:21:12;98983.41;;;15.18;33.22
56721;BME280;53183;47.412;18.884;2023-04-26T11:23:52;98970.91;;;15.41;32.56
56721;BME280;53183;47.412;18.884;2023-04-26T11:26:19;98958.00;;;15.90;31.59
56721;BME280;53183;47.412;18.884;2023-04-26T11:28:47;98968.47;;;15.82;31.96
56721;BME280;53183;47.412;18.884;2023-04-26T11:31:17;98972.13;;;15.37;30.37
56721;BME280;53183;47.412;18.884;2023-04-26T11:33:45;98982.91;;;15.24;30.32
56721;BME280;53183;47.412;18.884;2023-04-26T11:36:15;98992.59;;;15.25;30.68
56721;BME280;53183;47.412;18.884;2023-04-26T11:38:43;98996.63;;;14.64;31.09
56721;BME280;53183;47.412;18.884;2023-04-26T11:41:10;98985.59;;;14.35;31.77
56721;BME280;53183;47.412;18.884;2023-04-26T11:43:38;98977.47;;;14.25;32.33
56721;BME280;53183;47.412;18.884;2023-04-26T11:46:07;98995.16;;;14.93;31.26
56721;BME280;53183;47.412;18.884;2023-04-26T11:48:36;98983.09;;;15.00;30.13
56721;BME280;53183;47.412;18.884;2023-04-26T11:51:05;98979.31;;;14.47;30.59
56721;BME280;53183;47.412;18.884;2023-04-26T11:53:40;98978.13;;;14.73;32.16
56721;BME280;53183;47.412;18.884;2023-04-26T11:56:16;98983.22;;;14.76;31.86
56721;BME280;53183;47.412;18.884;2023-04-26T11:58:48;98992.03;;;14.77;32.50
56721;BME280;53183;47.412;18.884;2023-04-26T12:01:21;98990.09;;;14.57;33.19
56721;BME280;53183;47.412;18.884;2023-04-26T12:03:54;98985.41;;;14.94;32.68
56721;BME280;53183;47.412;18.884;2023-04-26T12:06:40;99000.97;;;14.53;32.56
56721;BME280;53183;47.412;18.884;2023-04-26T12:09:08;99006.12;;;14.32;32.56
56721;BME280;53183;47.412;18.884;2023-04-26T12:11:37;98995.81;;;14.17;32.77
56721;BME280;53183;47.412;18.884;2023-04-26T12:14:05;98991.66;;;14.01;32.70
56721;BME280;53183;47.412;18.884;2023-04-26T12:16:36;98996.59;;;13.95;33.15
56721;BME280;53183;47.412;18.884;2023-04-26T12:19:04;98989.00;;;14.01;33.75
56721;BME280;53183;47.412;18.884;2023-04-26T12:21:42;98985.78;;;14.20;33.09
56721;BME280;53183;47.412;18.884;2023-04-26T12:24:23;98985.47;;;14.25;32.60
56721;BME280;53183;47.412;18.884;2023-04-26T12:26:51;98986.22;;;14.61;32.58
56721;BME280;53183;47.412;18.884;2023-04-26T12:29:18;98983.94;;;15.01;31.81
56721;BME280;53183;47.412;18.884;2023-04-26T12:31:45;98988.37;;;15.12;30.77
56721;BME280;53183;47.412;18.884;2023-04-26T12:34:13;98985.66;;;14.68;32.38
56721;BME280;53183;47.412;18.884;2023-04-26T12:36:40;98985.81;;;14.31;33.26
56721;BME280;53183;47.412;18.884;2023-04-26T12:39:11;98990.28;;;13.84;34.27
56721;BME280;53183;47.412;18.884;2023-04-26T12:41:43;98990.72;;;13.78;35.34
56721;BME280;53183;47.412;18.884;2023-04-26T12:44:11;99005.28;;;13.86;34.99
56721;BME280;53183;47.412;18.884;2023-04-26T12:46:38;99008.94;;;13.48;33.76
56721;BME280;53183;47.412;18.884;2023-04-26T12:49:05;99012.75;;;13.56;33.25
56721;BME280;53183;47.412;18.884;2023-04-26T12:51:33;99015.44;;;13.44;33.87
56721;BME280;53183;47.412;18.884;2023-04-26T12:54:00;99002.37;;;13.89;33.50
56721;BME280;53183;47.412;18.884;2023-04-26T12:56:28;98999.69;;;14.24;33.38
56721;BME280;53183;47.412;18.884;2023-04-26T12:58:55;99009.31;;;14.02;33.40
56721;BME280;53183;47.412;18.884;2023-04-26T13:01:23;99007.59;;;13.66;34.01
56721;BME280;53183;47.412;18.884;2023-04-26T13:03:50;99016.91;;;13.72;33.53
56721;BME280;53183;47.412;18.884;2023-04-26T13:06:17;99016.47;;;13.54;34.26
56721;BME280;53183;47.412;18.884;2023-04-26T13:08:45;99016.06;;;13.47;34.02
56721;BME280;53183;47.412;18.884;2023-04-26T13:11:12;99023.69;;;13.15;34.40
56721;BME280;53183;47.412;18.884;2023-04-26T13:13:39;99022.22;;;13.11;33.96
56721;BME280;53183;47.412;18.884;2023-04-26T13:16:10;99027.78;;;12.70;34.77
56721;BME280;53183;47.412;18.884;2023-04-26T13:18:39;99026.84;;;12.71;34.99
56721;BME280;53183;47.412;18.884;2023-04-26T13:21:07;99028.53;;;12.72;33.69
56721;BME280;53183;47.412;18.884;2023-04-26T13:23:34;99024.91;;;12.85;34.80
56721;BME280;53183;47.412;18.884;2023-04-26T13:26:01;99027.06;;;13.17;34.79
56721;BME280;53183;47.412;18.884;2023-04-26T13:28:28;99032.53;;;13.52;33.67
56721;BME280;53183;47.412;18.884;2023-04-26T13:30:56;99021.25;;;13.97;33.73
56721;BME280;53183;47.412;18.884;2023-04-26T13:33:23;99014.19;;;14.31;33.96
56721;BME280;53183;47.412;18.884;2023-04-26T13:35:50;99016.69;;;13.75;34.28